Time;durP1;ratioP1;P1;durP2;ratioP2;P2;SDS_P1;SDS_P2;PMS_P1;PMS_P2;Temp;Humidity;BMP_temperature;BMP_pressure;BME280_temperature;BME280_humidity;BME280_pressure;Samples;Min_cycle;Max_cycle;Signal;HPM_P1;HPM_P2
2022/07/31 00:03:25;;;;;;;58.35;55.45;;;;;;;22.02;100.00;101700.83;2016901;71;30867;-75
2022/07/31 00:09:11;;;;;;;58.92;56.08;;;;;;;22.04;100.00;101708.37;2009789;71;30927;-76
2022/07/31 00:14:55;;;;;;;58.90;56.20;;;;;;;22.05;100.00;101705.80;2015147;71;30927;-75
2022/07/31 00:20:40;;;;;;;60.73;57.73;;;;;;;21.90;100.00;101695.89;1991616;71;30878;-77
2022/07/31 00:26:25;;;;;;;63.23;60.08;;;;;;;21.91;100.00;101693.28;2008038;71;31376;-76
2022/07/31 00:32:10;;;;;;;63.83;60.67;;;;;;;21.91;100.00;101687.62;2006416;71;30783;-76
2022/07/31 00:37:55;;;;;;;66.62;63.42;;;;;;;21.92;100.00;101668.65;1991658;71;30833;-76
2022/07/31 00:43:40;;;;;;;64.92;61.85;;;;;;;21.88;100.00;101672.75;2015383;71;30984;-76
2022/07/31 00:49:24;;;;;;;65.62;62.48;;;;;;;21.88;100.00;101677.58;2011463;71;30985;-76
2022/07/31 00:55:11;;;;;;;65.10;62.10;;;;;;;21.92;100.00;101675.17;2017042;71;30868;-76
2022/07/31 01:00:55;;;;;;;67.80;64.60;;;;;;;21.81;100.00;101671.06;2004845;71;30843;-76
2022/07/31 01:06:39;;;;;;;67.67;64.53;;;;;;;21.80;100.00;101665.15;2013324;71;31036;-77
2022/07/31 01:12:27;;;;;;;68.53;65.33;;;;;;;21.84;100.00;101673.77;2004608;71;30956;-76
2022/07/31 01:18:15;;;;;;;72.08;68.78;;;;;;;21.77;100.00;101665.84;1995449;71;30840;-76
2022/07/31 01:24:17;;;;;;;73.52;70.12;;;;;;;21.72;100.00;101661.78;1995316;71;30944;-77
2022/07/31 01:26:52;;;;;;;76.33;72.93;;;;;;;21.74;100.00;101655.19;1983523;72;24197;-76
2022/07/31 01:32:42;;;;;;;76.72;73.12;;;;;;;21.76;100.00;101655.69;1999112;71;30819;-77
2022/07/31 01:41:39;;;;;;;74.75;71.28;;;;;;;21.68;100.00;101650.91;2053277;69;31073;-75
2022/07/31 01:44:13;;;;;;;77.13;73.53;;;;;;;21.69;100.00;101653.99;1947033;73;24151;-76
2022/07/31 01:46:45;;;;;;;77.30;73.77;;;;;;;21.66;100.00;101649.00;1936533;73;24230;-76
2022/07/31 01:52:34;;;;;;;77.87;74.27;;;;;;;21.63;100.00;101643.45;2009744;71;31404;-75
2022/07/31 01:58:22;;;;;;;84.52;80.62;;;;;;;21.64;100.00;101635.22;2000788;71;30916;-75
2022/07/31 02:04:08;;;;;;;83.45;79.65;;;;;;;21.64;100.00;101636.63;2009411;71;31013;-77
2022/07/31 02:09:55;;;;;;;79.22;75.50;;;;;;;21.66;100.00;101632.03;2003863;71;30949;-76
2022/07/31 02:15:41;;;;;;;82.47;78.60;;;;;;;21.62;100.00;101626.23;2000944;71;30803;-74
2022/07/31 02:21:27;;;;;;;85.17;81.37;;;;;;;21.61;100.00;101621.74;2006433;71;31423;-76
2022/07/31 02:27:14;;;;;;;84.65;80.75;;;;;;;21.56;100.00;101616.89;2008091;71;31425;-75
2022/07/31 02:33:00;;;;;;;85.25;81.25;;;;;;;21.70;100.00;101623.11;1991626;71;30796;-76
2022/07/31 02:38:48;;;;;;;92.63;88.30;;;;;;;21.59;100.00;101614.20;2009655;71;30916;-75
2022/07/31 02:44:34;;;;;;;90.53;86.35;;;;;;;21.46;100.00;101606.78;2018548;71;30931;-76
2022/07/31 02:50:20;;;;;;;88.90;84.77;;;;;;;21.42;100.00;101606.39;2013204;71;30978;-76
2022/07/31 02:56:08;;;;;;;89.90;85.77;;;;;;;21.38;100.00;101606.25;1998848;71;31372;-76
2022/07/31 03:01:54;;;;;;;90.67;86.47;;;;;;;21.33;100.00;101583.83;2009510;71;30993;-75
2022/07/31 03:07:38;;;;;;;93.73;89.27;;;;;;;21.21;100.00;101581.73;2000153;71;30881;-75
2022/07/31 03:13:26;;;;;;;93.20;88.80;;;;;;;21.32;100.00;101604.19;1997123;71;31291;-75
2022/07/31 03:19:11;;;;;;;96.03;91.43;;;;;;;;;;2004435;71;30836;-77
2022/07/31 03:21:42;;;;;;;92.57;88.10;;;;;;;21.36;100.00;101601.50;1958783;72;24277;-77
2022/07/31 03:27:27;;;;;;;90.77;86.37;;;;;;;21.36;100.00;101595.85;2017151;71;30874;-76
2022/07/31 03:33:13;;;;;;;93.50;89.13;;;;;;;21.45;100.00;101592.98;2016898;71;31425;-77
2022/07/31 03:38:58;;;;;;;93.23;88.80;;;;;;;21.40;100.00;101600.23;1995161;71;30829;-76
2022/07/31 03:44:43;;;;;;;95.67;90.97;;;;;;;21.33;100.00;101594.55;2003847;71;30891;-77
2022/07/31 03:50:28;;;;;;;90.03;85.73;;;;;;;21.34;100.00;101580.66;2008412;71;31324;-75
2022/07/31 03:56:16;;;;;;;93.40;88.97;;;;;;;21.25;100.00;101567.74;2018522;71;30937;-76
2022/07/31 04:02:02;;;;;;;94.40;89.70;;;;;;;21.19;100.00;101576.16;1938884;71;39733;-76
2022/07/31 04:07:47;;;;;;;90.27;85.87;;;;;;;21.24;100.00;101578.21;2005360;70;33430;-74
2022/07/31 04:13:31;;;;;;;88.70;84.20;;;;;;;21.21;100.00;101564.77;2018430;71;31010;-76
2022/07/31 04:19:16;;;;;;;88.77;84.23;;;;;;;21.15;100.00;101559.63;2000977;71;30876;-75
2022/07/31 04:25:00;;;;;;;91.60;86.90;;;;;;;21.07;100.00;101563.30;2011184;71;30923;-76
2022/07/31 04:30:45;;;;;;;93.87;89.20;;;;;;;21.19;100.00;101571.91;2007903;71;30948;-74
2022/07/31 04:36:30;;;;;;;92.93;88.30;;;;;;;21.15;100.00;101566.12;2004187;71;31377;-75
2022/07/31 04:42:15;;;;;;;89.53;84.83;;;;;;;21.12;100.00;101568.77;2013704;71;31467;-75
2022/07/31 04:47:59;;;;;;;95.70;91.00;;;;;;;21.07;100.00;101570.36;2004109;71;31301;-74
2022/07/31 04:53:44;;;;;;;95.00;90.25;;;;;;;21.10;100.00;101569.67;2009405;71;30955;-77
2022/07/31 04:59:29;;;;;;;90.67;85.93;;;;;;;21.09;100.00;101569.45;1999312;71;30833;-75
2022/07/31 05:05:14;;;;;;;93.52;88.82;;;;;;;21.08;100.00;101570.61;1998249;71;30831;-75
2022/07/31 05:17:00;;;;;;;90.40;85.80;;;;;;;21.09;100.00;101567.46;2000986;71;30813;-76
2022/07/31 05:22:46;;;;;;;91.40;86.78;;;;;;;21.11;100.00;101567.93;2001373;71;30877;-74
2022/07/31 05:28:31;;;;;;;88.97;84.37;;;;;;;21.14;100.00;101570.10;2004069;71;31021;-76
2022/07/31 05:34:19;;;;;;;88.27;83.83;;;;;;;21.24;100.00;101573.97;1995522;71;31422;-75
2022/07/31 05:40:04;;;;;;;87.73;83.13;;;;;;;21.34;100.00;101560.05;2009438;71;30883;-75
2022/07/31 05:45:48;;;;;;;86.27;81.83;;;;;;;;;;2018594;71;33394;-75
2022/07/31 05:48:18;;;;;;;89.90;85.30;;;;;;;21.31;100.00;101558.72;1981016;72;24741;-75
2022/07/31 05:54:03;;;;;;;86.42;82.08;;;;;;;21.52;100.00;101557.34;1995466;71;30805;-75
2022/07/31 05:59:48;;;;;;;90.70;86.30;;;;;;;21.66;100.00;101548.03;2015063;71;30878;-75
2022/07/31 06:05:33;;;;;;;87.03;82.63;;;;;;;21.50;100.00;101533.42;2004222;71;30886;-76
2022/07/31 06:11:18;;;;;;;85.23;81.00;;;;;;;21.53;100.00;101543.45;2005826;71;30881;-74
2022/07/31 06:17:05;;;;;;;89.50;84.90;;;;;;;21.53;100.00;101539.80;1997139;71;30892;-74
2022/07/31 06:22:50;;;;;;;83.10;79.00;;;;;;;21.67;100.00;101551.11;2013093;71;31359;-79
2022/07/31 06:28:34;;;;;;;83.17;79.27;;;;;;;21.80;100.00;101545.77;2015270;71;31489;-77
2022/07/31 06:34:19;;;;;;;85.30;81.27;;;;;;;21.62;100.00;101563.20;2018498;71;30879;-76
2022/07/31 06:40:05;;;;;;;85.57;81.37;;;;;;;21.66;100.00;101554.27;1991559;71;30834;-76
2022/07/31 06:45:50;;;;;;;83.97;79.77;;;;;;;21.64;100.00;101557.45;2016740;71;31379;-76
2022/07/31 06:51:35;;;;;;;86.03;81.83;;;;;;;21.68;100.00;101557.59;2013384;71;31000;-75
2022/07/31 06:57:22;;;;;;;86.20;81.80;;;;;;;21.71;100.00;101554.91;2009876;71;30882;-74
2022/07/31 07:03:06;;;;;;;88.07;83.80;;;;;;;21.87;100.00;101552.28;1886341;75;31099;-77
2022/07/31 07:08:52;;;;;;;83.70;79.60;;;;;;;21.95;100.00;101547.78;2015226;71;31073;-76
2022/07/31 07:14:36;;;;;;;85.83;81.73;;;;;;;22.03;100.00;101561.03;2005608;71;31064;-76
2022/07/31 07:20:21;;;;;;;80.53;76.63;;;;;;;22.16;100.00;101546.56;2011351;71;31386;-77
2022/07/31 07:26:06;;;;;;;86.73;82.33;;;;;;;22.20;100.00;101547.56;2011925;71;30828;-75
2022/07/31 07:31:51;;;;;;;90.70;86.10;;;;;;;22.01;100.00;101552.05;2004823;71;31278;-76
2022/07/31 07:37:39;;;;;;;87.78;83.42;;;;;;;21.95;100.00;101544.95;1994364;71;30939;-76
2022/07/31 07:43:28;;;;;;;83.00;79.10;;;;;;;22.07;100.00;101550.09;2008225;71;31403;-76
2022/07/31 07:49:12;;;;;;;82.97;78.97;;;;;;;22.18;100.00;101544.82;2014946;71;30901;-76
2022/07/31 07:54:57;;;;;;;77.95;74.32;;;;;;;22.30;100.00;101542.62;2018568;71;30956;-75
2022/07/31 08:00:42;;;;;;;75.67;72.15;;;;;;;22.26;100.00;101538.24;2016818;71;31407;-76
2022/07/31 08:06:27;;;;;;;76.70;73.10;;;;;;;22.41;100.00;101538.20;1995163;71;31419;-75
2022/07/31 08:12:12;;;;;;;75.60;72.10;;;;;;;22.41;100.00;101537.61;2014897;71;30961;-75
2022/07/31 08:17:56;;;;;;;72.87;69.37;;;;;;;22.57;100.00;101534.35;2016827;71;31494;-77
2022/07/31 08:23:44;;;;;;;68.67;65.28;;;;;;;22.57;100.00;101532.11;2008312;71;31465;-76
2022/07/31 08:29:28;;;;;;;71.03;67.67;;;;;;;22.50;100.00;101536.94;2016692;71;30962;-78
2022/07/31 08:35:15;;;;;;;67.10;63.90;;;;;;;22.59;100.00;101523.48;2003863;71;31417;-77
2022/07/31 08:40:59;;;;;;;67.62;64.42;;;;;;;22.62;100.00;101543.22;2015300;71;31448;-78
2022/07/31 08:46:48;;;;;;;69.13;65.93;;;;;;;22.57;100.00;101538.59;2005105;71;30872;-77
2022/07/31 08:52:36;;;;;;;67.80;64.62;;;;;;;22.61;100.00;101543.80;1991500;71;32726;-76
2022/07/31 08:58:24;;;;;;;68.15;64.85;;;;;;;22.78;100.00;101538.56;1998934;71;30839;-74
2022/07/31 09:04:09;;;;;;;69.87;66.67;;;;;;;22.70;100.00;101552.23;2014877;71;30899;-74
2022/07/31 09:09:53;;;;;;;68.02;64.72;;;;;;;22.71;100.00;101544.57;2007916;71;30981;-73
2022/07/31 09:15:49;;;;;;;64.25;61.15;;;;;;;22.90;100.00;101545.66;2015098;71;31347;-73
2022/07/31 09:21:41;;;;;;;66.07;63.00;;;;;;;23.01;100.00;101546.88;2015219;71;30880;-75
2022/07/31 09:27:30;;;;;;;60.85;57.83;;;;;;;22.98;100.00;101546.14;2003997;71;31387;-75
2022/07/31 09:33:20;;;;;;;63.00;60.05;;;;;;;23.12;100.00;101538.72;2013793;71;31406;-73
2022/07/31 09:39:14;;;;;;;61.70;58.50;;;;;;;23.34;100.00;101535.41;2013202;71;30859;-73
2022/07/31 09:45:18;;;;;;;57.40;54.60;;;;;;;23.43;100.00;101546.08;2013159;71;30882;-75
2022/07/31 09:51:08;;;;;;;56.85;53.95;;;;;;;23.30;100.00;101543.56;2008299;70;31277;-75
2022/07/31 09:56:57;;;;;;;57.48;54.67;;;;;;;23.42;100.00;101538.72;2002741;71;31330;-75
2022/07/31 10:02:43;;;;;;;56.35;53.55;;;;;;;23.52;100.00;101553.05;1968513;71;30998;-73
2022/07/31 10:08:31;;;;;;;55.38;52.78;;;;;;;23.39;100.00;101545.70;2013592;71;30895;-74
2022/07/31 10:14:20;;;;;;;55.25;52.53;;;;;;;23.52;100.00;101539.69;2006190;71;30906;-75
2022/07/31 10:16:54;;;;;;;54.73;52.15;;;;;;;23.48;100.00;101550.69;1963843;72;24154;-75
2022/07/31 10:22:42;;;;;;;52.25;49.75;;;;;;;23.64;100.00;101547.94;2004789;71;31351;-73
2022/07/31 10:28:30;;;;;;;51.30;48.80;;;;;;;23.57;100.00;101534.38;1997063;71;30823;-75
2022/07/31 10:34:16;;;;;;;51.75;49.25;;;;;;;23.55;100.00;101534.72;2004573;71;31347;-74
2022/07/31 10:40:06;;;;;;;52.55;49.93;;;;;;;23.63;100.00;101537.77;2005714;71;30951;-75
2022/07/31 10:42:43;;;;;;;50.48;48.05;;;;;;;23.59;100.00;101538.48;1982008;72;24640;-76
2022/07/31 10:48:28;;;;;;;52.43;50.03;;;;;;;23.53;100.00;101543.36;2003758;71;30972;-75
2022/07/31 10:54:20;;;;;;;50.52;48.08;;;;;;;23.64;100.00;101543.09;2016870;71;30895;-77
2022/07/31 11:00:16;;;;;;;59.63;56.88;;;;;;;23.65;100.00;101553.85;1995440;71;31305;-77
2022/07/31 11:06:01;;;;;;;81.67;76.97;;;;;;;23.51;100.00;101557.05;2016786;71;30895;-76
2022/07/31 11:11:49;;;;;;;84.40;80.03;;;;;;;23.10;100.00;101562.34;1914939;72;30658;-76
2022/07/31 11:14:21;;;;;;;87.27;82.57;;;;;;;23.00;100.00;101557.12;1880344;76;24140;-75
2022/07/31 11:16:54;;;;;;;83.27;77.58;;;;;;;22.94;100.00;101563.61;1879012;76;24132;-75
2022/07/31 11:19:25;;;;;;;88.67;84.15;;;;;;;23.30;100.00;101559.16;1880313;76;24209;-76
2022/07/31 11:21:56;;;;;;;87.40;83.10;;;;;;;23.55;100.00;101554.57;1880334;76;24587;-73
2022/07/31 11:24:27;;;;;;;83.90;79.58;;;;;;;23.69;100.00;101555.63;1880339;76;24245;-79
2022/07/31 11:26:59;;;;;;;77.20;73.33;;;;;;;23.75;100.00;101559.84;1880396;76;24137;-76
2022/07/31 11:29:31;;;;;;;82.10;77.67;;;;;;;23.86;100.00;101558.19;1880394;76;24706;-75
2022/07/31 11:32:13;;;;;;;63.15;59.77;;;;;;;23.89;100.00;101560.89;1880331;76;24233;-75
2022/07/31 11:34:50;;;;;;;76.42;72.53;;;;;;;23.97;100.00;101561.34;1880299;76;24161;-75
2022/07/31 11:37:23;;;;;;;80.40;76.25;;;;;;;23.84;100.00;101549.78;1880287;76;24116;-77
2022/07/31 11:39:55;;;;;;;92.42;87.53;;;;;;;23.69;100.00;101555.63;1880388;76;24229;-77
2022/07/31 11:42:27;;;;;;;82.08;77.58;;;;;;;23.62;100.00;101563.88;1880306;76;24237;-74
2022/07/31 11:45:05;;;;;;;81.22;76.60;;;;;;;23.21;100.00;101561.28;1880374;76;24661;-75
2022/07/31 11:47:40;;;;;;;79.92;75.42;;;;;;;23.47;100.00;101563.20;1880414;76;24222;-77
2022/07/31 11:50:12;;;;;;;83.87;78.10;;;;;;;23.58;100.00;101553.84;1880350;76;24627;-76
2022/07/31 11:52:43;;;;;;;73.83;70.03;;;;;;;23.65;100.00;101548.18;1880428;76;24619;-76
2022/07/31 11:58:33;;;;;;;69.25;65.52;;;;;;;24.09;100.00;101540.01;2014007;71;30882;-76
2022/07/31 12:04:20;;;;;;;58.08;55.15;;;;;;;24.31;100.00;101530.97;2008071;71;30867;-77
2022/07/31 12:10:13;;;;;;;55.50;52.80;;;;;;;24.34;100.00;101535.95;2009573;71;30969;-76
2022/07/31 12:15:59;;;;;;;57.50;54.60;;;;;;;24.43;100.00;101532.32;2017025;71;31391;-76
2022/07/31 12:21:42;;;;;;;56.85;54.15;;;;;;;24.64;100.00;101529.87;2016782;71;31389;-76
2022/07/31 12:27:26;;;;;;;47.75;45.52;;;;;;;24.29;100.00;101548.14;2015043;71;31001;-76
2022/07/31 12:33:10;;;;;;;50.73;48.42;;;;;;;24.39;100.00;101542.76;1991060;71;31316;-76
2022/07/31 12:38:57;;;;;;;46.80;44.60;;;;;;;24.45;100.00;101539.91;2008057;71;30943;-76
2022/07/31 12:44:50;;;;;;;49.48;47.08;;;;;;;24.46;100.00;101537.89;2011484;71;30898;-76
2022/07/31 12:50:36;;;;;;;48.02;45.80;;;;;;;24.45;100.00;101526.29;1992935;71;30898;-76
2022/07/31 12:56:20;;;;;;;47.62;45.38;;;;;;;24.48;100.00;101526.98;2002711;71;31862;-77
2022/07/31 13:02:05;;;;;;;44.33;42.33;;;;;;;24.82;100.00;101526.29;2003938;71;31503;-75
2022/07/31 13:07:49;;;;;;;42.35;40.03;;;;;;;24.89;100.00;101515.76;2002136;71;32882;-77
2022/07/31 13:13:32;;;;;;;41.45;39.38;;;;;;;25.20;100.00;101516.34;2009445;71;30973;-76
2022/07/31 13:19:16;;;;;;;40.08;38.17;;;;;;;25.04;100.00;101516.93;2013609;71;30893;-75
2022/07/31 13:28:06;;;;;;;41.60;39.70;;;;;;;24.99;100.00;101504.44;2052421;69;30571;-76
2022/07/31 13:33:51;;;;;;;41.25;39.38;;;;;;;25.10;100.00;101498.41;2018633;70;30972;-74
2022/07/31 13:39:38;;;;;;;40.00;38.20;;;;;;;24.94;100.00;101499.85;2004409;71;33227;-73
2022/07/31 13:45:22;;;;;;;39.00;37.20;;;;;;;25.14;100.00;101490.20;2009759;71;31420;-76
2022/07/31 13:51:09;;;;;;;39.50;37.70;;;;;;;24.84;100.00;101489.82;2004115;71;30888;-75
2022/07/31 13:56:52;;;;;;;37.93;36.23;;;;;;;24.77;100.00;101494.50;2018723;71;30885;-75
2022/07/31 14:05:41;;;;;;;35.60;34.00;;;;;;;25.10;100.00;101481.35;2052987;69;30579;-74
2022/07/31 14:11:26;;;;;;;35.52;33.73;;;;;;;25.11;100.00;101481.00;2009687;71;31813;-76
2022/07/31 14:17:11;;;;;;;32.55;30.95;;;;;;;25.14;100.00;101485.94;2016884;71;31462;-74
2022/07/31 14:22:54;;;;;;;34.78;32.40;;;;;;;25.22;100.00;101489.77;1998590;71;31465;-73
2022/07/31 14:28:38;;;;;;;32.00;30.23;;;;;;;25.57;100.00;101495.52;2016516;71;31841;-72
2022/07/31 14:34:24;;;;;;;30.95;29.45;;;;;;;25.55;100.00;101493.63;2013124;71;31823;-74
2022/07/31 14:40:09;;;;;;;28.95;27.65;;;;;;;25.67;100.00;101495.74;2016758;71;30971;-74
2022/07/31 14:45:52;;;;;;;28.10;26.62;;;;;;;25.75;100.00;101482.52;2005830;71;30875;-74
2022/07/31 14:51:38;;;;;;;25.35;24.15;;;;;;;25.83;100.00;101489.41;2003821;71;32442;-73
2022/07/31 14:57:23;;;;;;;23.73;22.62;;;;;;;26.02;100.00;101482.88;2011322;71;30985;-74
2022/07/31 15:03:06;;;;;;;22.60;21.60;;;;;;;25.99;100.00;101487.08;1977886;72;32539;-73
2022/07/31 15:08:50;;;;;;;23.77;22.52;;;;;;;25.95;100.00;101481.32;2018705;71;31403;-73
2022/07/31 15:14:37;;;;;;;25.82;24.63;;;;;;;25.75;100.00;101483.34;2002263;71;31000;-74
2022/07/31 15:20:22;;;;;;;27.82;26.33;;;;;;;25.32;100.00;101489.22;2015121;71;32337;-73
2022/07/31 15:26:06;;;;;;;25.12;23.92;;;;;;;25.51;100.00;101482.13;2011930;71;32318;-72
2022/07/31 15:31:50;;;;;;;25.82;24.70;;;;;;;25.51;100.00;101492.69;1994779;71;31858;-71
2022/07/31 15:37:38;;;;;;;32.60;31.12;;;;;;;25.31;100.00;101490.41;2013367;71;32478;-72
2022/07/31 15:43:22;;;;;;;26.73;25.52;;;;;;;25.23;100.00;101486.57;1997107;71;30818;-71
2022/07/31 15:49:06;;;;;;;27.40;26.15;;;;;;;25.23;100.00;101492.26;2011656;71;31876;-72
2022/07/31 15:54:52;;;;;;;26.45;25.25;;;;;;;25.21;100.00;101501.73;1995410;71;32356;-73
2022/07/31 16:00:35;;;;;;;25.40;24.30;;;;;;;25.25;100.00;101504.08;2004385;71;30849;-72
2022/07/31 16:06:18;;;;;;;26.35;25.00;;;;;;;25.48;100.00;101508.48;2007879;71;31874;-72
2022/07/31 16:12:02;;;;;;;26.30;25.10;;;;;;;25.26;100.00;101517.10;2014880;71;31024;-71
2022/07/31 16:17:47;;;;;;;23.65;22.55;;;;;;;25.57;100.00;101512.58;2006552;71;31841;-74
2022/07/31 16:23:30;;;;;;;23.22;22.22;;;;;;;25.66;100.00;101498.98;2013266;71;31504;-71
2022/07/31 16:29:15;;;;;;;23.77;22.45;;;;;;;25.64;100.00;101497.09;2011329;71;30894;-71
2022/07/31 16:35:00;;;;;;;22.20;21.27;;;;;;;25.82;100.00;101497.72;2000504;71;31858;-70
2022/07/31 16:40:45;;;;;;;21.87;20.90;;;;;;;25.89;100.00;101501.31;2016606;71;30975;-72
2022/07/31 16:46:29;;;;;;;22.55;21.55;;;;;;;25.95;100.00;101497.58;2013203;71;30890;-73
2022/07/31 16:52:14;;;;;;;22.02;20.92;;;;;;;26.00;100.00;101490.16;2005676;71;30972;-71
2022/07/31 16:57:57;;;;;;;22.20;21.20;;;;;;;25.91;100.00;101491.81;2007703;71;31016;-72
2022/07/31 17:03:41;;;;;;;21.65;20.60;;;;;;;26.03;100.00;101493.67;1995118;71;30828;-72
2022/07/31 17:09:27;;;;;;;23.65;22.50;;;;;;;25.36;100.00;101499.48;2011727;71;30832;-72
2022/07/31 17:15:13;;;;;;;22.25;21.27;;;;;;;25.87;100.00;101489.48;2001154;71;30846;-72
2022/07/31 17:20:58;;;;;;;21.77;20.77;;;;;;;25.37;100.00;101499.69;2015278;71;32339;-72
2022/07/31 17:26:48;;;;;;;25.00;23.80;;;;;;;25.55;100.00;101497.30;2004031;71;30890;-71
2022/07/31 17:32:33;;;;;;;25.60;24.30;;;;;;;25.22;100.00;101499.13;2009472;71;32383;-70
2022/07/31 17:38:16;;;;;;;25.40;24.20;;;;;;;25.21;100.00;101510.86;1991508;71;31506;-73
2022/07/31 17:44:01;;;;;;;25.77;24.57;;;;;;;25.15;100.00;101518.05;2014957;71;32371;-73
2022/07/31 17:49:45;;;;;;;24.90;23.60;;;;;;;25.23;100.00;101522.12;2009573;71;31487;-72
2022/07/31 17:55:30;;;;;;;25.37;24.07;;;;;;;25.31;100.00;101537.33;2008254;71;30963;-72
2022/07/31 18:04:20;;;;;;;24.02;22.77;;;;;;;25.27;100.00;101536.42;2049290;69;31695;-73
2022/07/31 18:10:10;;;;;;;24.95;23.62;;;;;;;25.38;100.00;101541.17;2004023;71;31852;-77
2022/07/31 18:15:54;;;;;;;22.70;21.52;;;;;;;25.26;100.00;101541.28;2003944;71;31981;-77
2022/07/31 18:21:39;;;;;;;23.47;22.22;;;;;;;25.36;100.00;101548.43;2000951;71;31903;-79
2022/07/31 18:27:23;;;;;;;22.67;21.30;;;;;;;25.41;100.00;101549.58;1991595;71;32281;-78
2022/07/31 18:33:06;;;;;;;22.30;21.40;;;;;;;25.50;100.00;101548.76;2015259;71;31873;-78
2022/07/31 18:38:51;;;;;;;22.05;21.15;;;;;;;25.44;100.00;101559.37;2008354;71;31476;-76
2022/07/31 18:44:35;;;;;;;22.35;21.45;;;;;;;25.36;100.00;101567.75;2016711;71;30951;-78
2022/07/31 18:50:20;;;;;;;22.05;21.15;;;;;;;25.47;100.00;101573.69;2005750;71;30997;-78
2022/07/31 18:56:05;;;;;;;21.90;20.90;;;;;;;25.53;100.00;101574.23;2008183;71;31820;-78
2022/07/31 19:04:55;;;;;;;21.97;20.97;;;;;;;25.53;100.00;101579.37;2045272;69;30529;-77
2022/07/31 19:10:40;;;;;;;21.62;20.72;;;;;;;25.76;100.00;101578.06;2017097;71;31866;-76
2022/07/31 19:16:27;;;;;;;22.35;21.45;;;;;;;25.79;100.00;101574.50;2003874;71;30890;-75
2022/07/31 19:22:12;;;;;;;22.22;21.33;;;;;;;25.82;100.00;101573.16;1991619;71;31867;-77
2022/07/31 19:27:57;;;;;;;22.25;21.35;;;;;;;25.74;100.00;101577.62;2018548;71;30898;-78
2022/07/31 19:33:42;;;;;;;22.48;21.48;;;;;;;25.92;100.00;101583.14;2010050;71;31802;-80
2022/07/31 19:39:27;;;;;;;24.27;23.20;;;;;;;25.62;100.00;101587.12;1998793;71;31460;-78
2022/07/31 19:45:14;;;;;;;23.22;22.22;;;;;;;25.79;100.00;101590.16;2005783;71;31476;-78
2022/07/31 19:50:58;;;;;;;28.20;26.80;;;;;;;25.43;100.00;101594.11;2006763;70;31833;-75
2022/07/31 19:56:43;;;;;;;31.65;30.05;;;;;;;24.97;100.00;101602.03;2009685;71;31357;-76
2022/07/31 20:05:33;;;;;;;34.50;32.80;;;;;;;24.40;100.00;101607.48;2061102;69;30674;-81
2022/07/31 20:11:20;;;;;;;31.82;30.32;;;;;;;24.16;100.00;101613.25;2009706;71;30854;-77
2022/07/31 20:17:09;;;;;;;28.32;26.93;;;;;;;24.03;100.00;101630.29;2017261;71;30881;-80
2022/07/31 20:22:55;;;;;;;32.85;31.35;;;;;;;23.95;100.00;101634.09;2008260;71;30862;-77
2022/07/31 20:28:41;;;;;;;35.17;33.18;;;;;;;23.68;100.00;101635.40;2009301;71;30841;-78
2022/07/31 20:34:26;;;;;;;35.23;33.42;;;;;;;23.65;100.00;101643.20;2013088;71;30919;-76
2022/07/31 20:40:12;;;;;;;34.85;33.05;;;;;;;23.75;100.00;101639.87;2009581;71;30907;-77
2022/07/31 20:45:59;;;;;;;34.85;33.15;;;;;;;23.50;100.00;101648.98;2004222;71;31333;-76
2022/07/31 20:51:44;;;;;;;35.50;33.70;;;;;;;23.42;100.00;101647.89;1998828;71;30865;-77
2022/07/31 20:57:28;;;;;;;37.78;35.88;;;;;;;23.24;100.00;101659.20;2002960;71;31408;-77
2022/07/31 21:03:12;;;;;;;41.30;39.18;;;;;;;23.04;100.00;101673.69;2009562;71;30844;-75
2022/07/31 21:08:57;;;;;;;44.60;42.40;;;;;;;22.95;100.00;101663.61;2010159;71;31440;-77
2022/07/31 21:14:42;;;;;;;44.30;42.10;;;;;;;22.88;100.00;101676.11;1998554;71;31002;-77
2022/07/31 21:20:27;;;;;;;43.02;40.92;;;;;;;22.78;100.00;101685.03;2004402;71;31375;-77
2022/07/31 21:26:13;;;;;;;42.30;40.10;;;;;;;22.73;100.00;101697.98;1993517;71;30993;-76
2022/07/31 21:31:58;;;;;;;45.17;42.88;;;;;;;22.69;100.00;101704.36;2016871;71;30896;-75
2022/07/31 21:37:45;;;;;;;46.02;43.55;;;;;;;22.82;100.00;101715.16;2016899;71;30960;-76
2022/07/31 21:43:32;;;;;;;44.53;42.23;;;;;;;22.86;100.00;101711.03;2009994;71;30876;-73
2022/07/31 21:49:22;;;;;;;48.90;46.40;;;;;;;22.87;100.00;101722.61;2002105;70;30971;-77
2022/07/31 21:55:07;;;;;;;51.35;48.65;;;;;;;22.71;100.00;101723.84;2008372;71;31439;-82
2022/07/31 22:00:52;;;;;;;49.75;47.15;;;;;;;22.57;100.00;101721.26;1992306;71;31418;-78
2022/07/31 22:12:26;;;;;;;54.35;51.55;;;;;;;22.46;100.00;101730.52;2015291;71;30983;-81
2022/07/31 22:18:12;;;;;;;53.65;50.95;;;;;;;22.40;100.00;101731.88;2010480;71;31325;-81
2022/07/31 22:23:56;;;;;;;57.25;54.35;;;;;;;22.23;100.00;101730.83;2012013;71;30834;-82
2022/07/31 22:29:45;;;;;;;58.00;55.00;;;;;;;22.15;100.00;101735.13;2006599;71;31034;-80
2022/07/31 22:35:32;;;;;;;58.35;55.45;;;;;;;21.90;100.00;101743.98;2017018;71;31083;-81
2022/07/31 22:41:19;;;;;;;59.50;56.50;;;;;;;21.73;100.00;101745.47;2011898;71;31496;-81
2022/07/31 22:47:11;;;;;;;63.40;60.10;;;;;;;21.40;100.00;101750.88;2015297;71;30854;-81
2022/07/31 22:52:59;;;;;;;63.68;60.48;;;;;;;21.40;100.00;101754.28;2019085;71;30884;-80
2022/07/31 22:58:50;;;;;;;63.90;60.67;;;;;;;21.16;100.00;101764.16;2004175;71;30990;-80
2022/07/31 23:04:36;;;;;;;64.10;60.80;;;;;;;21.21;100.00;101767.39;1994641;70;30893;-80
2022/07/31 23:10:20;;;;;;;69.67;66.07;;;;;;;20.98;100.00;101772.37;2002572;71;30874;-80
2022/07/31 23:16:03;;;;;;;68.33;64.92;;;;;;;21.03;100.00;101775.03;2015318;70;30899;-80
2022/07/31 23:21:52;;;;;;;69.82;66.12;;;;;;;21.02;100.00;101788.06;2009935;71;30874;-79
2022/07/31 23:27:39;;;;;;;70.20;66.70;;;;;;;21.13;100.00;101786.61;2010098;71;30923;-80
2022/07/31 23:33:25;;;;;;;67.15;63.60;;;;;;;21.15;100.00;101788.50;1991984;70;30836;-80
2022/07/31 23:39:12;;;;;;;70.25;66.65;;;;;;;21.08;100.00;101797.47;2017112;71;31014;-80
2022/07/31 23:48:09;;;;;;;67.12;63.65;;;;;;;21.22;100.00;101800.16;2048691;69;30572;-80
2022/07/31 23:50:44;;;;;;;69.58;66.02;;;;;;;21.07;100.00;101792.97;2014463;71;24561;-80
2022/07/31 23:56:30;;;;;;;70.70;67.00;;;;;;;20.95;100.00;101787.16;2015640;70;30981;-81
